Time;durP1;ratioP1;P1;durP2;ratioP2;P2;SDS_P1;SDS_P2;PMS_P1;PMS_P2;Temp;Humidity;BMP_temperature;BMP_pressure;BME280_temperature;BME280_humidity;BME280_pressure;Samples;Min_cycle;Max_cycle;Signal;HPM_P1;HPM_P2
2021/01/28 00:00:14;;;;;;;;;;;;;;;29.16;19.56;99939.41;5118305;28;1968;-37
2021/01/28 00:02:39;;;;;;;;;;;;;;;29.56;19.62;99940.25;5118976;28;732;-38
2021/01/28 00:05:05;;;;;;;;;;;;;;;29.72;19.27;99935.34;5118264;28;768;-37
2021/01/28 00:07:30;;;;;;;;;;;;;;;29.74;19.30;99938.66;5118359;28;959;-38
2021/01/28 00:09:55;;;;;;;;;;;;;;;29.87;18.97;99943.97;5118772;28;875;-38
2021/01/28 00:12:21;;;;;;;;;;;;;;;29.14;19.88;99948.81;5118508;28;743;-33
2021/01/28 00:14:46;;;;;;;;;;;;;;;29.40;19.46;99947.84;5117823;27;942;-38
2021/01/28 00:17:11;;;;;;;;;;;;;;;29.53;19.26;99955.03;5118336;28;780;-38
2021/01/28 00:19:37;;;;;;;;;;;;;;;29.68;19.25;99948.50;5117871;28;1886;-38
2021/01/28 00:22:02;;;;;;;;;;;;;;;29.69;19.36;99950.19;5118002;28;795;-38
2021/01/28 00:24:27;;;;;;;;;;;;;;;29.11;19.97;99949.25;5117331;28;895;-36
2021/01/28 00:26:53;;;;;;;;;;;;;;;29.52;19.41;99955.25;5117228;28;800;-37
2021/01/28 00:29:18;;;;;;;;;;;;;;;29.27;19.58;99953.34;5117880;27;946;-38
2021/01/28 00:31:43;;;;;;;;;;;;;;;29.51;19.26;99957.13;5118056;28;767;-39
2021/01/28 00:34:08;;;;;;;;;;;;;;;29.65;19.04;99957.91;5117626;28;807;-34
2021/01/28 00:36:34;;;;;;;;;;;;;;;29.75;19.08;99959.28;5117847;28;780;-38
2021/01/28 00:38:59;;;;;;;;;;;;;;;29.85;19.20;99953.38;5117913;28;819;-36
2021/01/28 00:41:24;;;;;;;;;;;;;;;29.30;19.54;99963.72;5117280;28;1980;-38
2021/01/28 00:43:50;;;;;;;;;;;;;;;29.82;18.89;99957.38;5117336;27;961;-37
2021/01/28 00:46:15;;;;;;;;;;;;;;;29.34;19.41;99962.25;5117565;28;742;-39
2021/01/28 00:48:41;;;;;;;;;;;;;;;29.22;19.01;99959.41;5117402;28;885;-39
2021/01/28 00:51:06;;;;;;;;;;;;;;;29.36;18.78;99965.59;5099149;28;821;-36
2021/01/28 00:53:32;;;;;;;;;;;;;;;29.46;18.47;99965.09;5117752;28;811;-38
2021/01/28 00:55:57;;;;;;;;;;;;;;;29.54;18.30;99958.59;5116994;28;755;-38
2021/01/28 00:58:23;;;;;;;;;;;;;;;29.12;19.04;99959.03;5125780;27;1130;-37
2021/01/28 01:00:48;;;;;;;;;;;;;;;29.21;18.62;99963.16;5117504;28;1905;-34
2021/01/28 01:03:14;;;;;;;;;;;;;;;29.45;18.84;99964.28;5116943;28;870;-37
2021/01/28 01:05:40;;;;;;;;;;;;;;;29.52;18.69;99971.53;5117494;28;775;-35
2021/01/28 01:08:10;;;;;;;;;;;;;;;29.62;18.16;99977.31;5117284;28;837;-39
2021/01/28 01:10:41;;;;;;;;;;;;;;;29.21;18.61;99972.09;5117266;28;799;-38
2021/01/28 01:13:10;;;;;;;;;;;;;;;29.24;18.94;99980.84;5116999;27;993;-37
2021/01/28 01:15:35;;;;;;;;;;;;;;;29.14;19.07;99979.44;5117222;28;815;-37
2021/01/28 01:18:00;;;;;;;;;;;;;;;29.33;18.55;99983.09;5116808;28;756;-37
2021/01/28 01:20:26;;;;;;;;;;;;;;;29.43;18.59;99987.19;5117275;28;1902;-37
2021/01/28 01:22:51;;;;;;;;;;;;;;;29.21;18.58;99987.53;5117662;28;732;-37
2021/01/28 01:25:17;;;;;;;;;;;;;;;29.37;18.24;99983.50;5123444;27;890;-38
2021/01/28 01:27:42;;;;;;;;;;;;;;;29.38;18.31;99979.72;5134843;27;980;-38
2021/01/28 01:30:07;;;;;;;;;;;;;;;29.68;17.70;99987.28;5116884;28;886;-35
2021/01/28 01:32:33;;;;;;;;;;;;;;;28.87;18.50;99993.06;5116788;28;846;-36
2021/01/28 01:34:58;;;;;;;;;;;;;;;27.68;20.33;99981.91;5117000;28;767;-36
2021/01/28 01:37:23;;;;;;;;;;;;;;;28.52;19.40;99986.06;5116647;28;850;-38
2021/01/28 01:39:49;;;;;;;;;;;;;;;27.59;20.28;99988.50;5116507;28;1906;-38
2021/01/28 01:42:14;;;;;;;;;;;;;;;27.43;20.55;99984.31;5117209;28;819;-35
2021/01/28 01:44:39;;;;;;;;;;;;;;;28.40;19.38;99990.44;5116332;27;973;-36
2021/01/28 01:47:14;;;;;;;;;;;;;;;28.68;19.13;99992.06;5116597;28;764;-37
2021/01/28 01:49:39;;;;;;;;;;;;;;;28.03;19.65;99990.88;5117048;28;759;-38
2021/01/28 01:52:04;;;;;;;;;;;;;;;27.19;20.75;99984.69;5116717;28;795;-38
2021/01/28 01:54:33;;;;;;;;;;;;;;;27.30;20.63;99990.50;5116831;28;827;-38
2021/01/28 01:57:01;;;;;;;;;;;;;;;27.91;20.04;99996.06;5121611;28;1142;-35
2021/01/28 01:59:27;;;;;;;;;;;;;;;28.30;19.33;99998.97;5101410;28;937;-39
2021/01/28 02:01:57;;;;;;;;;;;;;;;28.22;19.58;100002.72;5098225;28;1909;-39
2021/01/28 02:04:22;;;;;;;;;;;;;;;27.13;20.50;100002.50;5116807;28;795;-38
2021/01/28 02:06:48;;;;;;;;;;;;;;;26.71;21.10;100009.75;5116837;28;764;-38
2021/01/28 02:09:13;;;;;;;;;;;;;;;27.54;20.16;100012.59;5097887;28;1086;-38
2021/01/28 02:11:42;;;;;;;;;;;;;;;27.92;19.73;100014.78;5116609;28;775;-36
2021/01/28 02:14:08;;;;;;;;;;;;;;;28.32;19.25;100019.38;5121229;27;811;-36
2021/01/28 02:16:35;;;;;;;;;;;;;;;28.20;19.20;100019.16;5098118;28;780;-36
2021/01/28 02:19:00;;;;;;;;;;;;;;;27.81;19.38;100016.22;5116154;28;812;-38
2021/01/28 02:21:29;;;;;;;;;;;;;;;27.86;19.52;100021.84;5137015;28;1962;-38
2021/01/28 02:24:12;;;;;;;;;;;;;;;28.16;19.34;100020.59;5136486;28;816;-39
2021/01/28 02:26:40;;;;;;;;;;;;;;;28.57;19.20;100023.31;5136996;28;802;-35
2021/01/28 02:29:06;;;;;;;;;;;;;;;28.54;18.81;100029.16;5104488;28;1004;-37
2021/01/28 02:31:31;;;;;;;;;;;;;;;28.27;19.26;100023.72;5098070;28;803;-37
2021/01/28 02:33:57;;;;;;;;;;;;;;;28.36;19.32;100028.75;5097750;28;788;-38
2021/01/28 02:36:29;;;;;;;;;;;;;;;28.62;19.35;100026.22;5116123;28;807;-38
2021/01/28 02:38:54;;;;;;;;;;;;;;;28.85;19.17;100028.47;5116372;28;752;-33
2021/01/28 02:41:19;;;;;;;;;;;;;;;28.73;19.04;100028.28;5116065;28;1971;-35
2021/01/28 02:43:44;;;;;;;;;;;;;;;28.55;18.98;100033.50;5116176;27;965;-38
2021/01/28 02:46:11;;;;;;;;;;;;;;;28.65;19.20;100027.66;5115850;28;814;-35
2021/01/28 02:48:37;;;;;;;;;;;;;;;28.73;19.44;100032.84;5118419;28;771;-36
2021/01/28 02:51:02;;;;;;;;;;;;;;;29.01;18.90;100039.06;5120095;28;780;-38
2021/01/28 02:53:33;;;;;;;;;;;;;;;29.00;18.73;100042.81;5119469;28;999;-36
2021/01/28 02:55:58;;;;;;;;;;;;;;;28.78;19.26;100043.06;5119672;28;799;-35
2021/01/28 02:58:24;;;;;;;;;;;;;;;28.68;19.47;100044.31;5128284;27;1209;-38
2021/01/28 03:00:49;;;;;;;;;;;;;;;28.42;19.30;99967.56;5119756;28;1902;-36
2021/01/28 03:03:14;;;;;;;;;;;;;;;29.08;19.12;100048.00;5101776;28;752;-38
2021/01/28 03:05:40;;;;;;;;;;;;;;;29.00;18.80;100046.34;5119770;28;751;-35
2021/01/28 03:08:05;;;;;;;;;;;;;;;28.77;19.05;100038.69;5119285;28;1530;-38
2021/01/28 03:10:30;;;;;;;;;;;;;;;28.86;19.08;100048.25;5119560;28;739;-32
2021/01/28 03:12:56;;;;;;;;;;;;;;;28.98;19.28;100048.44;5119128;27;1004;-38
2021/01/28 03:15:23;;;;;;;;;;;;;;;29.24;18.69;100046.69;5119316;28;763;-38
2021/01/28 03:17:48;;;;;;;;;;;;;;;29.10;18.87;100056.72;5119180;28;795;-35
2021/01/28 03:20:14;;;;;;;;;;;;;;;28.81;19.41;100054.28;5119469;28;1972;-38
2021/01/28 03:22:39;;;;;;;;;;;;;;;28.94;19.09;100053.44;5119278;28;783;-38
2021/01/28 03:25:05;;;;;;;;;;;;;;;29.09;18.97;100055.91;5119058;28;819;-38
2021/01/28 03:27:31;;;;;;;;;;;;;;;29.36;18.92;100055.00;5119155;27;922;-38
2021/01/28 03:29:56;;;;;;;;;;;;;;;29.03;18.84;100066.78;5139256;27;941;-37
2021/01/28 03:32:21;;;;;;;;;;;;;;;28.85;19.10;100055.53;5139583;27;831;-37
2021/01/28 03:34:47;;;;;;;;;;;;;;;29.10;18.82;100059.44;5139784;27;767;-38
2021/01/28 03:37:12;;;;;;;;;;;;;;;29.13;18.91;100064.44;5139793;27;824;-37
2021/01/28 03:39:37;;;;;;;;;;;;;;;29.43;18.68;100071.19;5139261;27;1058;-35
2021/01/28 03:42:03;;;;;;;;;;;;;;;29.07;18.78;100068.00;5139692;27;1901;-37
2021/01/28 03:44:28;;;;;;;;;;;;;;;28.96;18.85;100074.88;5122174;27;1007;-34
2021/01/28 03:46:53;;;;;;;;;;;;;;;29.18;18.87;100077.31;5118845;28;898;-33
2021/01/28 03:49:18;;;;;;;;;;;;;;;29.18;18.86;100074.63;5119095;28;866;-38
2021/01/28 03:51:44;;;;;;;;;;;;;;;29.39;18.50;100088.94;5118771;28;784;-38
2021/01/28 03:54:09;;;;;;;;;;;;;;;28.94;18.96;100091.34;5118350;28;532;-36
2021/01/28 03:56:34;;;;;;;;;;;;;;;28.89;19.07;100087.59;5119946;28;1123;-38
2021/01/28 03:58:59;;;;;;;;;;;;;;;29.09;19.21;100087.59;5125527;27;987;-35
2021/01/28 04:01:25;;;;;;;;;;;;;;;29.20;18.68;100089.63;5118370;28;1964;-38
2021/01/28 04:03:50;;;;;;;;;;;;;;;29.42;18.48;100092.03;5118633;28;790;-38
2021/01/28 04:06:15;;;;;;;;;;;;;;;29.03;18.76;100093.84;5118541;28;898;-39
2021/01/28 04:08:41;;;;;;;;;;;;;;;28.91;19.12;100090.94;5118311;28;792;-36
2021/01/28 04:11:06;;;;;;;;;;;;;;;29.03;18.83;100094.66;5118711;28;858;-39
2021/01/28 04:13:31;;;;;;;;;;;;;;;29.14;18.63;100087.78;5117815;27;957;-39
2021/01/28 04:15:56;;;;;;;;;;;;;;;29.06;18.06;100094.22;5118079;28;816;-36
2021/01/28 04:18:22;;;;;;;;;;;;;;;28.51;19.15;100092.63;5118336;28;744;-38
2021/01/28 04:20:48;;;;;;;;;;;;;;;28.44;19.02;100098.06;5117964;28;1897;-33
2021/01/28 04:23:13;;;;;;;;;;;;;;;28.72;18.55;100102.41;5118027;28;815;-38
2021/01/28 04:25:38;;;;;;;;;;;;;;;28.95;18.35;100103.81;5118406;28;775;-34
2021/01/28 04:28:04;;;;;;;;;;;;;;;29.28;18.20;100107.50;5126416;27;924;-38
2021/01/28 04:30:30;;;;;;;;;;;;;;;28.98;18.40;100109.91;5130437;27;855;-38
2021/01/28 04:32:55;;;;;;;;;;;;;;;28.72;18.79;100110.53;5138452;27;834;-32
2021/01/28 04:35:21;;;;;;;;;;;;;;;28.91;18.69;100107.16;5138604;27;794;-34
2021/01/28 04:37:46;;;;;;;;;;;;;;;29.09;18.23;100115.47;5138184;27;806;-38
2021/01/28 04:40:20;;;;;;;;;;;;;;;29.34;18.05;100108.53;5138489;27;1909;-37
2021/01/28 04:42:46;;;;;;;;;;;;;;;29.11;18.37;100111.75;5135210;27;965;-38
2021/01/28 04:45:11;;;;;;;;;;;;;;;28.66;18.77;100110.53;5117461;28;806;-36
2021/01/28 04:47:37;;;;;;;;;;;;;;;28.72;18.77;100117.81;5118143;28;716;-39
2021/01/28 04:50:02;;;;;;;;;;;;;;;28.82;18.94;100118.22;5099986;28;799;-39
2021/01/28 04:52:29;;;;;;;;;;;;;;;28.62;18.84;100122.78;5117370;28;898;-39
2021/01/28 04:54:55;;;;;;;;;;;;;;;25.82;17.43;100115.97;5099925;28;744;-39
2021/01/28 04:57:20;;;;;;;;;;;;;;;27.86;18.90;100127.25;5107039;27;1115;-41
2021/01/28 04:59:47;;;;;;;;;;;;;;;28.09;19.25;100119.81;5117244;27;1914;-37
2021/01/28 05:02:14;;;;;;;;;;;;;;;28.42;18.87;100132.59;5099483;28;886;-41
2021/01/28 05:04:41;;;;;;;;;;;;;;;28.63;19.00;100135.31;5099643;28;832;-39
2021/01/28 05:07:10;;;;;;;;;;;;;;;28.65;18.79;100146.72;5117362;28;752;-39
2021/01/28 05:09:35;;;;;;;;;;;;;;;28.67;18.85;100150.06;5099103;28;756;-41
2021/01/28 05:12:00;;;;;;;;;;;;;;;28.76;18.72;100145.28;5116729;28;791;-38
2021/01/28 05:14:29;;;;;;;;;;;;;;;28.61;18.47;100140.94;5116395;27;950;-37
2021/01/28 05:16:56;;;;;;;;;;;;;;;28.17;19.02;100145.81;5117331;28;791;-38
2021/01/28 05:19:42;;;;;;;;;;;;;;;28.30;19.30;100150.41;5117435;28;814;-38
2021/01/28 05:22:07;;;;;;;;;;;;;;;28.19;19.28;100157.28;5098622;28;1890;-38
2021/01/28 05:24:43;;;;;;;;;;;;;;;27.87;19.37;100155.13;5129035;27;819;-34
2021/01/28 05:27:09;;;;;;;;;;;;;;;28.07;19.76;100149.78;5137635;27;752;-38
2021/01/28 05:29:34;;;;;;;;;;;;;;;28.54;19.43;100157.16;5116521;27;1023;-35
2021/01/28 05:32:00;;;;;;;;;;;;;;;28.79;19.18;100143.00;5098170;28;1245;-38
2021/01/28 05:34:26;;;;;;;;;;;;;;;29.04;18.84;100150.50;5116972;28;832;-33
2021/01/28 05:36:56;;;;;;;;;;;;;;;28.71;19.11;100151.34;5115863;28;763;-38
2021/01/28 05:39:35;;;;;;;;;;;;;;;27.59;20.57;100151.44;5098453;28;1112;-37
2021/01/28 05:42:20;;;;;;;;;;;;;;;28.05;20.18;100154.53;5116907;27;1902;-38
2021/01/28 05:44:45;;;;;;;;;;;;;;;28.55;19.33;100155.25;5114589;28;910;-31
2021/01/28 05:47:34;;;;;;;;;;;;;;;28.81;19.35;100157.13;5136742;27;842;-38
2021/01/28 05:50:14;;;;;;;;;;;;;;;28.79;19.43;100158.41;5137188;27;819;-37
2021/01/28 05:52:39;;;;;;;;;;;;;;;28.76;19.72;100162.34;5136785;28;756;-38
2021/01/28 05:55:05;;;;;;;;;;;;;;;28.98;19.54;100162.16;5136983;28;1119;-38
2021/01/28 05:57:37;;;;;;;;;;;;;;;29.18;19.31;100164.84;5129346;27;943;-38
2021/01/28 06:00:03;;;;;;;;;;;;;;;28.90;19.42;100157.75;5097878;28;1913;-38
2021/01/28 06:02:34;;;;;;;;;;;;;;;29.08;19.45;100159.84;5116719;28;752;-38
2021/01/28 06:05:10;;;;;;;;;;;;;;;29.43;19.14;100161.44;5116559;28;767;-31
2021/01/28 06:07:47;;;;;;;;;;;;;;;28.96;19.66;100166.94;5098351;28;791;-39
2021/01/28 06:10:20;;;;;;;;;;;;;;;28.29;20.46;100173.09;5116663;28;828;-39
2021/01/28 06:12:52;;;;;;;;;;;;;;;28.80;19.91;100182.56;5103859;27;859;-38
2021/01/28 06:15:26;;;;;;;;;;;;;;;28.52;20.14;100180.03;5116356;28;772;-39
2021/01/28 06:18:04;;;;;;;;;;;;;;;28.27;20.66;100181.44;5136179;27;874;-34
2021/01/28 06:20:43;;;;;;;;;;;;;;;28.73;20.00;100184.41;5136847;28;1980;-38
2021/01/28 06:23:32;;;;;;;;;;;;;;;29.07;19.60;100195.28;5120659;27;747;-38
2021/01/28 06:26:00;;;;;;;;;;;;;;;29.37;19.64;100193.97;5093019;27;1331;-38
2021/01/28 06:28:50;;;;;;;;;;;;;;;28.82;19.67;100196.72;5138809;27;945;-38
2021/01/28 06:31:21;;;;;;;;;;;;;;;28.65;20.57;100193.56;5122407;27;799;-37
2021/01/28 06:34:05;;;;;;;;;;;;;;;29.01;19.97;100198.81;5122866;27;787;-40
2021/01/28 06:36:30;;;;;;;;;;;;;;;29.34;19.68;100187.91;5140114;27;748;-38
2021/01/28 06:39:05;;;;;;;;;;;;;;;28.99;20.13;100199.03;5140495;27;1226;-38
2021/01/28 06:41:31;;;;;;;;;;;;;;;28.85;20.23;100199.00;5122298;27;1982;-38
2021/01/28 06:44:02;;;;;;;;;;;;;;;29.12;19.26;100189.22;5108369;28;925;-39
2021/01/28 06:46:34;;;;;;;;;;;;;;;29.29;19.11;100198.59;5130598;27;831;-39
2021/01/28 06:49:18;;;;;;;;;;;;;;;29.43;19.43;100193.09;5122581;27;811;-40
2021/01/28 06:52:03;;;;;;;;;;;;;;;28.45;20.62;100196.25;5139995;27;878;-41
2021/01/28 06:54:31;;;;;;;;;;;;;;;28.31;20.52;100195.38;5122469;27;1202;-39
2021/01/28 06:57:02;;;;;;;;;;;;;;;28.37;20.67;100202.69;5135392;27;1184;-38
2021/01/28 06:59:34;;;;;;;;;;;;;;;28.55;20.37;100199.41;5100902;28;989;-39
2021/01/28 07:02:15;;;;;;;;;;;;;;;28.69;20.54;100196.72;5100961;28;1914;-40
2021/01/28 07:04:59;;;;;;;;;;;;;;;29.13;19.94;100212.56;5101217;28;787;-39
2021/01/28 07:07:25;;;;;;;;;;;;;;;29.56;19.63;100219.38;5119553;28;820;-39
2021/01/28 07:09:51;;;;;;;;;;;;;;;29.54;19.38;100213.31;5101068;28;848;-41
2021/01/28 07:12:19;;;;;;;;;;;;;;;29.68;19.15;100220.38;5119431;28;806;-38
2021/01/28 07:14:46;;;;;;;;;;;;;;;29.95;18.10;100224.88;5100482;28;855;-37
2021/01/28 07:17:13;;;;;;;;;;;;;;;29.67;18.15;100229.56;5101447;28;768;-39
2021/01/28 07:19:43;;;;;;;;;;;;;;;29.71;18.48;100235.41;5119023;28;783;-38
2021/01/28 07:22:27;;;;;;;;;;;;;;;28.75;19.21;100222.94;5118964;28;1902;-39
2021/01/28 07:24:52;;;;;;;;;;;;;;;29.08;18.91;100234.84;5119705;28;775;-39
2021/01/28 07:27:19;;;;;;;;;;;;;;;29.13;18.82;100237.75;5099944;28;843;-39
2021/01/28 07:29:44;;;;;;;;;;;;;;;29.63;18.72;100239.16;5119192;27;937;-37
2021/01/28 07:32:10;;;;;;;;;;;;;;;29.91;18.32;100240.72;5118663;28;851;-39
2021/01/28 07:34:35;;;;;;;;;;;;;;;30.11;18.32;100239.84;5117594;28;747;-37
2021/01/28 07:37:18;;;;;;;;;;;;;;;29.93;18.14;100237.81;5119344;28;727;-39
2021/01/28 07:39:44;;;;;;;;;;;;;;;29.57;18.27;100230.00;5119018;28;1165;-38
2021/01/28 07:42:21;;;;;;;;;;;;;;;30.08;18.29;100237.53;5118221;28;1910;-39
2021/01/28 07:44:47;;;;;;;;;;;;;;;30.29;17.98;100236.44;5118438;27;949;-38
2021/01/28 07:47:13;;;;;;;;;;;;;;;30.25;17.97;100237.06;5118898;28;810;-38
2021/01/28 07:49:39;;;;;;;;;;;;;;;29.85;18.60;100236.19;5118312;28;941;-38
2021/01/28 07:52:16;;;;;;;;;;;;;;;29.85;18.65;100229.91;5118950;28;732;-39
2021/01/28 07:54:45;;;;;;;;;;;;;;;30.13;18.51;100231.47;5118635;28;846;-39
2021/01/28 07:57:11;;;;;;;;;;;;;;;30.27;18.01;100240.41;5124401;27;1119;-40
2021/01/28 08:00:05;;;;;;;;;;;;;;;30.12;18.24;100237.94;5120147;27;984;-40
2021/01/28 08:02:31;;;;;;;;;;;;;;;30.17;18.06;100238.13;5100501;28;1208;-39
2021/01/28 08:05:06;;;;;;;;;;;;;;;29.90;18.51;100239.06;5117292;28;847;-36
2021/01/28 08:07:43;;;;;;;;;;;;;;;30.09;18.45;100230.25;5118912;28;748;-40
2021/01/28 08:10:24;;;;;;;;;;;;;;;30.19;17.72;100233.31;5100722;28;778;-35
2021/01/28 08:12:51;;;;;;;;;;;;;;;30.30;17.45;100234.53;5117641;27;918;-23
2021/01/28 08:15:17;;;;;;;;;;;;;;;28.99;19.13;100233.38;5118375;28;776;-24
2021/01/28 08:17:43;;;;;;;;;;;;;;;28.88;19.10;100230.22;5118393;28;759;-24
2021/01/28 08:20:11;;;;;;;;;;;;;;;28.59;19.51;100235.00;5099530;28;1909;-23
2021/01/28 08:22:42;;;;;;;;;;;;;;;29.36;18.71;100241.06;5118350;28;887;-23
2021/01/28 08:25:07;;;;;;;;;;;;;;;29.80;18.30;100242.25;5099341;28;1581;-24
2021/01/28 08:27:38;;;;;;;;;;;;;;;29.92;18.14;100250.56;5098880;27;1251;-23
2021/01/28 08:30:04;;;;;;;;;;;;;;;29.80;18.18;100253.09;5118203;28;809;-33
2021/01/28 08:32:29;;;;;;;;;;;;;;;28.82;19.34;100256.28;5099361;28;777;-23
2021/01/28 08:34:59;;;;;;;;;;;;;;;28.69;19.23;100253.53;5117306;28;806;-23
2021/01/28 08:37:24;;;;;;;;;;;;;;;29.06;18.76;100254.00;5099235;28;851;-24
2021/01/28 08:39:53;;;;;;;;;;;;;;;29.40;18.38;100261.28;5117540;28;1423;-23
2021/01/28 08:42:19;;;;;;;;;;;;;;;30.01;17.89;100261.16;5117064;28;1963;-24
2021/01/28 08:44:45;;;;;;;;;;;;;;;29.98;17.63;100256.97;5116833;27;969;-23
2021/01/28 08:47:12;;;;;;;;;;;;;;;29.33;18.28;100255.84;5117470;28;782;-26
2021/01/28 08:49:38;;;;;;;;;;;;;;;29.14;18.76;100262.97;5117211;28;779;-25
2021/01/28 08:52:04;;;;;;;;;;;;;;;29.80;18.29;100261.22;5117523;28;763;-22
2021/01/28 08:54:33;;;;;;;;;;;;;;;30.02;17.79;100260.09;5117551;28;751;-25
2021/01/28 08:56:58;;;;;;;;;;;;;;;30.24;17.86;100259.81;5103697;27;1111;-23
2021/01/28 08:59:38;;;;;;;;;;;;;;;29.82;17.75;100253.72;5102652;28;940;-32
2021/01/28 09:02:03;;;;;;;;;;;;;;;29.26;18.14;100255.06;5099328;28;1901;-23
2021/01/28 09:04:28;;;;;;;;;;;;;;;28.68;19.24;100260.81;5116678;28;811;-22
2021/01/28 09:06:54;;;;;;;;;;;;;;;29.36;18.37;100255.47;5117369;28;804;-35
2021/01/28 09:09:27;;;;;;;;;;;;;;;29.63;18.04;100257.31;5116802;28;800;-26
2021/01/28 09:11:52;;;;;;;;;;;;;;;29.94;17.73;100259.31;5098552;28;794;-23
2021/01/28 09:14:18;;;;;;;;;;;;;;;29.90;17.69;100255.34;5116923;27;953;-25
2021/01/28 09:16:50;;;;;;;;;;;;;;;29.90;17.87;100259.94;5128041;27;883;-24
2021/01/28 09:19:15;;;;;;;;;;;;;;;29.81;18.16;100254.75;5118338;27;870;-23
2021/01/28 09:21:42;;;;;;;;;;;;;;;30.21;17.77;100260.25;5137962;27;2035;-22
2021/01/28 09:24:21;;;;;;;;;;;;;;;30.31;17.76;100253.31;5118828;27;879;-24
2021/01/28 09:26:46;;;;;;;;;;;;;;;30.39;17.78;100249.53;5136846;27;775;-26
2021/01/28 09:29:17;;;;;;;;;;;;;;;30.34;17.63;100256.66;5136242;27;1004;-23
2021/01/28 09:31:43;;;;;;;;;;;;;;;30.21;17.96;100247.53;5137314;27;835;-31
2021/01/28 09:34:23;;;;;;;;;;;;;;;29.69;17.25;100254.59;5136466;27;819;-23
2021/01/28 09:36:55;;;;;;;;;;;;;;;28.79;19.06;100243.16;5137701;27;760;-24
2021/01/28 09:39:31;;;;;;;;;;;;;;;27.92;19.85;100241.84;5119069;28;1209;-22
2021/01/28 09:42:07;;;;;;;;;;;;;;;29.28;18.29;100244.84;5136050;27;1971;-24
2021/01/28 09:44:36;;;;;;;;;;;;;;;29.67;17.78;100242.28;5117641;28;1295;-22
2021/01/28 09:47:02;;;;;;;;;;;;;;;29.82;17.78;100242.03;5137017;28;783;-23
2021/01/28 09:49:27;;;;;;;;;;;;;;;29.06;18.53;100234.22;5136724;28;803;-23
2021/01/28 09:51:52;;;;;;;;;;;;;;;28.58;19.54;100236.03;5137683;28;898;-23
2021/01/28 09:54:20;;;;;;;;;;;;;;;28.83;19.10;100232.72;5118104;27;1320;-23
2021/01/28 09:56:46;;;;;;;;;;;;;;;29.00;19.04;100225.06;5133287;27;1056;-24
2021/01/28 09:59:13;;;;;;;;;;;;;;;28.80;19.15;100228.56;5120547;27;996;-28
2021/01/28 10:01:38;;;;;;;;;;;;;;;28.19;19.84;100222.19;5127687;27;1897;-23
2021/01/28 10:04:03;;;;;;;;;;;;;;;28.24;20.01;100214.28;5122353;27;878;-22
2021/01/28 10:06:29;;;;;;;;;;;;;;;27.70;20.43;100220.31;5141335;27;807;-24
2021/01/28 10:08:54;;;;;;;;;;;;;;;27.47;20.90;100224.13;5141203;27;842;-27
2021/01/28 10:11:19;;;;;;;;;;;;;;;27.06;20.87;100214.06;5140888;27;755;-32
2021/01/28 10:13:45;;;;;;;;;;;;;;;28.60;19.25;100223.13;5123127;27;803;-22
2021/01/28 10:16:11;;;;;;;;;;;;;;;29.18;18.92;100226.28;5120518;28;798;-33
2021/01/28 10:18:36;;;;;;;;;;;;;;;29.32;18.48;100222.53;5120280;28;771;-35
2021/01/28 10:21:01;;;;;;;;;;;;;;;28.51;19.21;100224.38;5120451;28;1969;-25
2021/01/28 10:23:26;;;;;;;;;;;;;;;27.29;20.74;100213.81;5121034;28;827;-23
2021/01/28 10:25:52;;;;;;;;;;;;;;;27.54;20.53;100215.22;5133511;27;807;-23
2021/01/28 10:28:17;;;;;;;;;;;;;;;28.62;18.09;100214.81;5133218;27;949;-24
2021/01/28 10:30:42;;;;;;;;;;;;;;;28.94;18.34;100213.19;5120235;28;889;-23
2021/01/28 10:33:10;;;;;;;;;;;;;;;29.08;18.46;100213.16;5119770;28;740;-24
2021/01/28 10:35:36;;;;;;;;;;;;;;;27.66;19.87;100202.78;5102082;28;821;-22
2021/01/28 10:38:01;;;;;;;;;;;;;;;27.28;20.47;100206.72;5120528;28;744;-22
2021/01/28 10:40:26;;;;;;;;;;;;;;;28.14;19.76;100203.03;5119327;28;1977;-23
2021/01/28 10:42:55;;;;;;;;;;;;;;;28.66;18.95;100199.84;5119464;27;910;-23
2021/01/28 10:45:22;;;;;;;;;;;;;;;28.99;18.62;100200.91;5101153;28;920;-24
2021/01/28 10:47:47;;;;;;;;;;;;;;;27.40;19.87;100201.63;5119403;28;751;-24
2021/01/28 10:50:12;;;;;;;;;;;;;;;27.19;20.27;100197.13;5119903;28;776;-28
2021/01/28 10:52:38;;;;;;;;;;;;;;;28.15;19.86;100202.81;5120049;28;780;-22
2021/01/28 10:55:05;;;;;;;;;;;;;;;28.71;19.04;100197.34;5119219;28;839;-22
2021/01/28 10:57:30;;;;;;;;;;;;;;;28.95;18.94;100201.28;5126370;27;900;-25
2021/01/28 10:59:55;;;;;;;;;;;;;;;27.44;20.71;100200.22;5119705;27;934;-27
2021/01/28 11:02:21;;;;;;;;;;;;;;;27.10;20.92;100196.44;5119011;28;1976;-24
2021/01/28 11:04:46;;;;;;;;;;;;;;;28.33;19.87;100198.72;5119469;28;743;-23
2021/01/28 11:07:11;;;;;;;;;;;;;;;28.71;19.34;100203.56;5119777;28;846;-23
2021/01/28 11:09:37;;;;;;;;;;;;;;;28.10;19.90;100199.88;5118189;28;948;-23
2021/01/28 11:12:04;;;;;;;;;;;;;;;27.10;21.10;100196.44;5119744;28;818;-23
2021/01/28 11:14:29;;;;;;;;;;;;;;;27.70;20.49;100195.16;5119152;27;957;-23
2021/01/28 11:16:55;;;;;;;;;;;;;;;28.56;19.71;100195.63;5118384;28;828;-26
2021/01/28 11:19:20;;;;;;;;;;;;;;;28.78;19.38;100200.88;5119114;28;775;-23
2021/01/28 11:21:45;;;;;;;;;;;;;;;27.35;20.60;100199.53;5119469;28;1910;-23
2021/01/28 11:24:12;;;;;;;;;;;;;;;26.71;20.65;100202.09;5118498;28;754;-23
2021/01/28 11:26:37;;;;;;;;;;;;;;;28.00;19.66;100197.56;5118770;28;816;-22
2021/01/28 11:29:04;;;;;;;;;;;;;;;28.55;19.22;100198.56;5118902;27;954;-23
2021/01/28 11:31:30;;;;;;;;;;;;;;;28.90;18.90;100195.66;5118321;28;831;-23
2021/01/28 11:33:55;;;;;;;;;;;;;;;28.24;19.37;100196.19;5118906;28;882;-23
2021/01/28 11:36:21;;;;;;;;;;;;;;;27.08;20.73;100187.69;5119138;28;759;-23
2021/01/28 11:38:46;;;;;;;;;;;;;;;27.68;20.02;100184.56;5118823;28;763;-22
2021/01/28 11:41:11;;;;;;;;;;;;;;;28.34;19.12;100187.69;5118831;28;1996;-22
2021/01/28 11:43:36;;;;;;;;;;;;;;;28.75;18.81;100189.63;5118817;27;956;-24
2021/01/28 11:46:02;;;;;;;;;;;;;;;28.72;18.83;100185.47;5118383;28;845;-22
2021/01/28 11:48:27;;;;;;;;;;;;;;;28.32;18.97;100191.63;5117810;28;851;-23
2021/01/28 11:50:52;;;;;;;;;;;;;;;28.16;19.41;100187.44;5119087;28;740;-22
2021/01/28 11:53:18;;;;;;;;;;;;;;;27.16;20.72;100181.31;5118291;28;799;-24
2021/01/28 11:55:43;;;;;;;;;;;;;;;26.98;19.75;100180.75;5118288;28;756;-23
2021/01/28 11:58:08;;;;;;;;;;;;;;;28.54;18.76;100186.91;5126834;27;1181;-23
2021/01/28 12:00:33;;;;;;;;;;;;;;;29.00;18.21;100197.13;5118157;28;1988;-31
2021/01/28 12:02:59;;;;;;;;;;;;;;;29.16;18.14;100185.88;5118218;28;771;-23
2021/01/28 12:05:25;;;;;;;;;;;;;;;29.19;18.01;100193.59;5118487;28;732;-22
2021/01/28 12:07:51;;;;;;;;;;;;;;;29.68;18.13;100198.69;5117811;28;858;-25
2021/01/28 12:10:16;;;;;;;;;;;;;;;26.14;15.95;100197.34;5117990;28;807;-24
2021/01/28 12:12:42;;;;;;;;;;;;;;;22.64;17.87;100183.38;5117948;27;882;-23
2021/01/28 12:15:07;;;;;;;;;;;;;;;22.94;17.85;100189.09;5117666;28;862;-23
2021/01/28 12:17:33;;;;;;;;;;;;;;;22.57;17.60;100185.84;5117726;28;807;-29
2021/01/28 12:19:58;;;;;;;;;;;;;;;22.70;17.17;100190.78;5116603;28;1167;-23
2021/01/28 12:22:24;;;;;;;;;;;;;;;22.34;16.66;100188.31;5117240;28;1963;-34
2021/01/28 12:24:49;;;;;;;;;;;;;;;25.49;14.16;100066.00;5117284;28;795;-22
2021/01/28 12:27:14;;;;;;;;;;;;;;;27.39;13.39;100208.88;5117706;28;779;-25
2021/01/28 12:29:40;;;;;;;;;;;;;;;27.84;13.13;100210.38;5117667;27;961;-23
2021/01/28 12:32:06;;;;;;;;;;;;;;;28.17;13.08;100211.56;5117378;28;732;-24
2021/01/28 12:34:31;;;;;;;;;;;;;;;28.41;13.42;100217.47;5117687;28;799;-24
2021/01/28 12:36:57;;;;;;;;;;;;;;;28.71;13.46;100213.59;5117034;28;874;-24
2021/01/28 12:39:22;;;;;;;;;;;;;;;28.90;13.45;100220.03;5116776;28;1080;-25
2021/01/28 12:41:48;;;;;;;;;;;;;;;29.24;13.17;100222.75;5117900;28;1906;-24
2021/01/28 12:44:13;;;;;;;;;;;;;;;29.58;13.30;100222.66;5117337;27;976;-27
2021/01/28 12:46:38;;;;;;;;;;;;;;;29.47;13.46;100226.88;5116971;28;819;-30
2021/01/28 12:49:03;;;;;;;;;;;;;;;29.08;13.84;100224.84;5117800;28;823;-23
2021/01/28 12:51:29;;;;;;;;;;;;;;;29.19;13.84;100222.56;5117435;28;962;-35
2021/01/28 12:53:54;;;;;;;;;;;;;;;29.24;13.97;100230.88;5116207;28;828;-25
2021/01/28 12:56:19;;;;;;;;;;;;;;;29.88;13.96;100233.03;5118213;28;768;-26